MMMY/MTY METAR and TAF weather

Enter ICAO airport designator
Station Type Date Time Source
MMMY METAR 2019/08/26 06:40 UTC NOAA

MMMY 260640Z 00000KT 10SM SCT250 24/22 A2981 RMK 8/002


Station Type Date Time Source
MMMY Decoded METAR 2019/08/26 06:40 UTC NOAA

Station name not available
Aug 26, 2019 - 02:40 AM EDT / 2019.08.26 0640 UTC
Wind: Calm:0
Visibility: 10 mile(s):0
Sky conditions: partly cloudy
Temperature: 75 F (24 C)
Dew Point: 71 F (22 C)
Relative Humidity: 88%
Pressure (altimeter): 29.81 in. Hg (1009 hPa)
ob: MMMY 260640Z 00000KT 10SM SCT250 24/22 A2981 RMK 8/002
cycle: 6

Station Type Date Time Source
MMMY TAF 2019/08/26 06:45 UTC NOAA

TAF MMMY 260538Z 2606/2712 16005KT P6SM SCT030 SCT090 BKN250 TX37/2622Z TN24/2612Z
TEMPO 2611/2615 4SM HZ BKN015
FM261800 12012KT P6SM SCT030 BKN250
TEMPO 2621/2701 BKN030CB
FM270600 16005KT P6SM SCT030

Example: see airport list